Time;durP1;ratioP1;P1;durP2;ratioP2;P2;SDS_P1;SDS_P2;PMS_P1;PMS_P2;Temp;Humidity;BMP_temperature;BMP_pressure;BME280_temperature;BME280_humidity;BME280_pressure;Samples;Min_cycle;Max_cycle;Signal;HPM_P1;HPM_P2
2021/04/30 00:00:09;;;;;;;12.70;7.47;;;;;3.60;100783.00;;;;10495161;28;20272;-71
2021/04/30 00:05:10;;;;;;;12.13;7.80;;;;;3.60;100789.00;;;;10469260;28;20213;-71
2021/04/30 00:10:12;;;;;;;11.23;7.30;;;;;3.40;100790.00;;;;10486466;28;20194;-71
2021/04/30 00:15:14;;;;;;;12.43;7.23;;;;;3.30;100786.00;;;;10485467;28;20193;-71
2021/04/30 00:20:16;;;;;;;9.47;6.93;;;;;3.30;100775.00;;;;10469900;28;20193;-71
2021/04/30 00:25:17;;;;;;;9.90;7.40;;;;;3.20;100782.00;;;;10484169;28;20220;-71
2021/04/30 00:30:20;;;;;;;11.43;7.43;;;;;3.20;100778.00;;;;10526315;28;20193;-71
2021/04/30 00:35:21;;;;;;;10.60;7.83;;;;;3.20;100780.00;;;;10526277;28;20662;-70
2021/04/30 00:40:22;;;;;;;11.47;8.03;;;;;3.10;100790.00;;;;10526113;28;20231;-71
2021/04/30 00:45:38;;;;;;;11.80;7.60;;;;;3.00;100800.00;;;;10525766;28;20217;-71
2021/04/30 00:50:39;;;;;;;10.10;7.93;;;;;2.90;100791.00;;;;10509225;28;20196;-71
2021/04/30 00:55:40;;;;;;;14.43;7.97;;;;;2.80;100804.00;;;;10525048;28;20260;-71
2021/04/30 01:00:42;;;;;;;12.50;7.97;;;;;2.80;100807.00;;;;10502193;28;20227;-72
2021/04/30 01:05:43;;;;;;;17.57;9.43;;;;;2.70;100808.00;;;;10516993;28;20244;-73
2021/04/30 01:10:45;;;;;;;19.80;9.70;;;;;2.70;100802.00;;;;10484089;28;20182;-73
2021/04/30 01:15:46;;;;;;;12.27;10.63;;;;;2.80;100808.00;;;;10483180;28;20197;-73
2021/04/30 01:20:48;;;;;;;12.07;10.00;;;;;2.80;100829.00;;;;10466523;28;20194;-73
2021/04/30 01:25:49;;;;;;;17.20;11.40;;;;;2.80;100825.00;;;;10465794;28;20248;-73
2021/04/30 01:30:51;;;;;;;16.40;12.53;;;;;2.90;100826.00;;;;10482518;28;20194;-73
2021/04/30 01:35:52;;;;;;;18.87;12.57;;;;;2.90;100813.00;;;;10516155;28;20196;-73
2021/04/30 01:40:54;;;;;;;16.23;11.27;;;;;2.90;100819.00;;;;10532832;28;20583;-73
2021/04/30 01:46:04;;;;;;;17.23;11.73;;;;;2.90;100814.00;;;;10498542;28;20239;-73
2021/04/30 01:51:06;;;;;;;18.43;10.80;;;;;2.90;100816.00;;;;10523646;28;20189;-73
2021/04/30 01:56:12;;;;;;;14.77;10.50;;;;;2.90;100811.00;;;;10523329;28;20678;-73
2021/04/30 02:01:14;;;;;;;16.47;11.20;;;;;2.90;100822.00;;;;10524115;28;20189;-73
2021/04/30 02:06:15;;;;;;;17.30;10.60;;;;;2.90;100819.00;;;;10541563;28;20205;-73
2021/04/30 02:11:17;;;;;;;17.57;10.73;;;;;2.80;100828.00;;;;10540015;28;20193;-73
2021/04/30 02:16:23;;;;;;;14.70;11.03;;;;;2.90;100821.00;;;;10508286;28;20272;-73
2021/04/30 02:21:24;;;;;;;17.40;12.37;;;;;3.00;100817.00;;;;10523041;28;20199;-74
2021/04/30 02:26:28;;;;;;;18.10;12.63;;;;;3.20;100820.00;;;;10504639;28;20209;-73
2021/04/30 02:31:29;;;;;;;18.53;11.30;;;;;3.30;100813.00;;;;10522789;28;20185;-74
2021/04/30 02:36:30;;;;;;;15.30;11.00;;;;;3.30;100813.00;;;;10522600;28;20203;-74
2021/04/30 02:41:31;;;;;;;18.03;11.97;;;;;3.40;100810.00;;;;10505330;28;20184;-74
2021/04/30 02:46:33;;;;;;;19.00;11.70;;;;;3.40;100813.00;;;;10504761;28;20220;-74
2021/04/30 02:51:34;;;;;;;18.87;12.43;;;;;3.60;100817.00;;;;10556095;28;20224;-73
2021/04/30 02:56:35;;;;;;;19.53;12.77;;;;;3.60;100827.00;;;;10488267;28;20201;-74
2021/04/30 03:01:37;;;;;;;18.37;12.50;;;;;3.80;100837.00;;;;10504703;28;20718;-73
2021/04/30 03:06:38;;;;;;;18.17;14.77;;;;;3.90;100838.00;;;;10539688;28;20204;-74
2021/04/30 03:11:40;;;;;;;18.73;13.20;;;;;4.10;100845.00;;;;10504543;28;20824;-74
2021/04/30 03:16:42;;;;;;;15.93;13.23;;;;;4.20;100815.00;;;;10538641;28;20564;-73
2021/04/30 03:21:43;;;;;;;15.90;12.97;;;;;4.40;100809.00;;;;10496156;28;20196;-74
2021/04/30 03:26:45;;;;;;;17.90;14.23;;;;;4.50;100816.00;;;;10535584;28;20204;-73
2021/04/30 03:31:46;;;;;;;18.10;13.90;;;;;4.50;100803.00;;;;10546304;28;20197;-73
2021/04/30 03:36:47;;;;;;;23.20;13.03;;;;;4.50;100797.00;;;;10566757;28;20192;-74
2021/04/30 03:41:49;;;;;;;17.00;12.23;;;;;4.40;100788.00;;;;10537224;28;20720;-74
2021/04/30 03:46:50;;;;;;;21.70;15.13;;;;;4.30;100789.00;;;;10570508;28;20735;-74
2021/04/30 03:51:51;;;;;;;18.80;12.40;;;;;4.30;100795.00;;;;10571340;28;20184;-74
2021/04/30 03:56:53;;;;;;;21.70;13.33;;;;;4.20;100780.00;;;;10541351;28;20231;-74
2021/04/30 04:01:54;;;;;;;20.70;14.13;;;;;4.20;100779.00;;;;10528883;28;20189;-73
2021/04/30 04:06:56;;;;;;;20.67;13.10;;;;;4.20;100788.00;;;;10544304;28;20699;-74
2021/04/30 04:11:57;;;;;;;19.90;14.13;;;;;4.10;100797.00;;;;10511104;28;20193;-74
2021/04/30 04:17:16;;;;;;;19.43;13.17;;;;;3.90;100790.00;;;;10533149;28;20279;-73
2021/04/30 04:22:28;;;;;;;23.97;15.33;;;;;3.70;100800.00;;;;10529246;28;20196;-74
2021/04/30 04:27:30;;;;;;;22.27;13.73;;;;;3.60;100810.00;;;;10526847;28;20554;-74
2021/04/30 04:32:31;;;;;;;23.10;15.20;;;;;3.50;100811.00;;;;10510246;28;20189;-74
2021/04/30 04:37:33;;;;;;;19.43;14.73;;;;;3.60;100824.00;;;;10543485;28;20283;-74
2021/04/30 04:42:34;;;;;;;22.70;15.93;;;;;3.60;100821.00;;;;10560986;28;20177;-74
2021/04/30 04:47:35;;;;;;;22.03;16.67;;;;;3.70;100832.00;;;;10541888;28;20217;-74
2021/04/30 04:52:37;;;;;;;26.17;16.50;;;;;3.90;100850.00;;;;10526001;28;20196;-74
2021/04/30 04:57:39;;;;;;;24.70;16.83;;;;;4.00;100857.00;;;;10525627;28;20204;-74
2021/04/30 05:02:40;;;;;;;22.40;17.47;;;;;4.40;100846.00;;;;10508964;28;20193;-73
2021/04/30 05:07:42;;;;;;;28.37;16.87;;;;;4.80;100834.00;;;;10497975;28;20213;-74
2021/04/30 05:12:43;;;;;;;22.67;16.77;;;;;5.10;100837.00;;;;10508553;28;20193;-74
2021/04/30 05:17:45;;;;;;;20.63;14.93;;;;;5.10;100849.00;;;;10542573;28;20246;-74
2021/04/30 05:22:46;;;;;;;20.50;15.27;;;;;5.40;100856.00;;;;10524811;28;20197;-74
2021/04/30 05:27:47;;;;;;;21.07;14.60;;;;;5.70;100847.00;;;;10561980;28;20243;-74
2021/04/30 05:32:49;;;;;;;23.27;15.87;;;;;5.90;100849.00;;;;10487572;28;20205;-74
2021/04/30 05:37:50;;;;;;;26.77;16.20;;;;;6.00;100844.00;;;;10512072;28;20246;-74
2021/04/30 05:42:51;;;;;;;21.50;14.87;;;;;6.40;100861.00;;;;10524009;28;20193;-74
2021/04/30 05:47:53;;;;;;;17.87;14.30;;;;;6.90;100859.00;;;;10502082;28;20331;-74
2021/04/30 05:52:54;;;;;;;20.20;14.67;;;;;7.40;100863.00;;;;10491054;28;20863;-74
2021/04/30 05:57:56;;;;;;;18.70;13.83;;;;;8.00;100867.00;;;;10523796;28;20188;-74
2021/04/30 06:02:57;;;;;;;19.43;13.03;;;;;8.60;100874.00;;;;10540066;28;20217;-74
2021/04/30 06:07:59;;;;;;;18.87;11.93;;;;;9.00;100864.00;;;;10519334;28;20245;-73
2021/04/30 06:13:05;;;;;;;19.50;11.30;;;;;9.30;100852.00;;;;10465453;28;20193;-74
2021/04/30 06:18:06;;;;;;;15.90;11.57;;;;;9.70;100849.00;;;;10518263;28;20189;-74
2021/04/30 06:23:07;;;;;;;21.30;11.47;;;;;10.10;100850.00;;;;10467153;28;20201;-74
2021/04/30 06:28:09;;;;;;;15.27;10.43;;;;;10.40;100860.00;;;;10494608;28;20205;-73
2021/04/30 06:33:10;;;;;;;16.63;10.30;;;;;10.60;100851.00;;;;10538703;28;20197;-74
2021/04/30 06:38:11;;;;;;;17.80;10.77;;;;;11.00;100866.00;;;;10488556;28;20262;-74
2021/04/30 06:43:13;;;;;;;17.10;10.97;;;;;11.40;100856.00;;;;10537853;28;20649;-74
2021/04/30 06:48:14;;;;;;;21.00;10.67;;;;;12.30;100845.00;;;;10498733;28;20248;-74
2021/04/30 06:53:17;;;;;;;15.53;10.17;;;;;13.50;100839.00;;;;10480682;28;20193;-75
2021/04/30 06:58:18;;;;;;;15.53;9.50;;;;;13.80;100846.00;;;;10496212;28;20225;-75
2021/04/30 07:03:19;;;;;;;15.67;10.60;;;;;13.20;100844.00;;;;10512327;28;20254;-73
2021/04/30 07:08:32;;;;;;;21.20;10.80;;;;;13.10;100834.00;;;;10521293;28;20205;-72
2021/04/30 07:13:35;;;;;;;20.73;10.97;;;;;14.10;100836.00;;;;10497186;28;20263;-72
2021/04/30 07:18:37;;;;;;;17.23;10.37;;;;;14.00;100833.00;;;;10499404;28;20204;-72
2021/04/30 07:23:39;;;;;;;15.23;10.77;;;;;13.80;100832.00;;;;10521142;28;20237;-72
2021/04/30 07:28:40;;;;;;;19.10;9.80;;;;;13.70;100839.00;;;;10520518;28;20577;-72
2021/04/30 07:33:47;;;;;;;13.77;8.93;;;;;13.80;100844.00;;;;10520947;28;20193;-72
2021/04/30 07:38:49;;;;;;;13.50;10.17;;;;;14.00;100834.00;;;;10521106;28;20193;-72
2021/04/30 07:43:50;;;;;;;17.77;9.63;;;;;14.60;100827.00;;;;10495524;28;20193;-72
2021/04/30 07:48:51;;;;;;;13.17;10.37;;;;;13.60;100832.00;;;;10478305;28;20275;-72
2021/04/30 07:53:53;;;;;;;15.43;8.30;;;;;13.50;100839.00;;;;10482086;28;20201;-72
2021/04/30 07:58:55;;;;;;;11.87;7.90;;;;;13.90;100845.00;;;;10503120;28;20216;-75
2021/04/30 08:03:56;;;;;;;23.87;9.03;;;;;13.30;100834.00;;;;10519311;28;20197;-72
2021/04/30 08:08:57;;;;;;;17.90;8.07;;;;;14.60;100828.00;;;;10519895;28;20789;-72
2021/04/30 08:13:59;;;;;;;19.93;9.67;;;;;14.20;100831.00;;;;10494272;28;20236;-72
2021/04/30 08:19:00;;;;;;;15.13;9.67;;;;;13.00;100843.00;;;;10477758;28;20202;-72
2021/04/30 08:24:03;;;;;;;16.97;9.50;;;;;12.30;100838.00;;;;10543700;28;20192;-75
2021/04/30 08:29:04;;;;;;;18.90;10.00;;;;;14.00;100835.00;;;;10549739;28;20575;-74
2021/04/30 08:34:05;;;;;;;19.27;9.60;;;;;15.90;100828.00;;;;10495451;28;20802;-73
2021/04/30 08:39:08;;;;;;;15.33;9.13;;;;;14.60;100848.00;;;;10484379;28;20228;-72
2021/04/30 08:44:09;;;;;;;17.67;10.57;;;;;12.70;100860.00;;;;10467658;28;20233;-74
2021/04/30 08:49:11;;;;;;;21.43;12.50;;;;;11.80;100864.00;;;;10484530;28;20214;-74
2021/04/30 08:54:15;;;;;;;16.27;10.93;;;;;11.60;100866.00;;;;10487311;28;20291;-74
2021/04/30 08:59:20;;;;;;;19.63;12.40;;;;;11.70;100865.00;;;;10526000;28;20627;-74
2021/04/30 09:04:23;;;;;;;19.00;12.87;;;;;14.30;100850.00;;;;10508583;28;20250;-74
2021/04/30 09:09:24;;;;;;;20.40;12.23;;;;;16.60;100843.00;;;;10504557;28;20214;-73
2021/04/30 09:14:35;;;;;;;17.90;13.07;;;;;18.30;100838.00;;;;10490649;28;20204;-73
2021/04/30 09:19:39;;;;;;;15.33;11.63;;;;;18.00;100852.00;;;;10505776;28;20198;-73
2021/04/30 09:24:41;;;;;;;18.60;13.23;;;;;15.30;100854.00;;;;10476651;28;20199;-73
2021/04/30 09:29:42;;;;;;;22.23;14.50;;;;;14.00;100851.00;;;;10558316;28;20371;-72
2021/04/30 09:34:44;;;;;;;16.23;14.27;;;;;12.90;100857.00;;;;10531976;28;20205;-72
2021/04/30 09:39:57;;;;;;;18.00;16.10;;;;;12.40;100844.00;;;;10490797;28;20216;-72
2021/04/30 09:45:05;;;;;;;21.43;17.00;;;;;13.10;100837.00;;;;10542107;28;20246;-73
2021/04/30 09:50:27;;;;;;;17.90;16.00;;;;;13.90;100835.00;;;;10523463;28;20196;-74
2021/04/30 09:55:41;;;;;;;19.67;15.80;;;;;14.70;100837.00;;;;10541427;28;20206;-73
2021/04/30 10:00:45;;;;;;;15.03;13.47;;;;;16.40;100818.00;;;;10520219;28;20220;-73
2021/04/30 10:06:13;;;;;;;13.50;12.10;;;;;17.10;100820.00;;;;10524802;28;20569;-74
2021/04/30 10:11:31;;;;;;;14.20;12.70;;;;;15.70;100829.00;;;;10499075;28;20533;-74
2021/04/30 10:16:32;;;;;;;14.80;12.57;;;;;15.00;100819.00;;;;10497627;28;20633;-74
2021/04/30 10:21:40;;;;;;;16.13;13.73;;;;;14.70;100811.00;;;;10493847;28;20197;-74
2021/04/30 10:26:43;;;;;;;16.03;14.17;;;;;14.40;100807.00;;;;10539730;28;20270;-74
2021/04/30 10:31:49;;;;;;;16.87;13.27;;;;;16.80;100796.00;;;;10521259;28;20201;-74
2021/04/30 10:36:53;;;;;;;14.40;11.97;;;;;18.70;100789.00;;;;10511708;28;20255;-74
2021/04/30 10:41:55;;;;;;;13.30;11.47;;;;;18.10;100781.00;;;;10483079;28;20221;-74
2021/04/30 10:47:12;;;;;;;17.43;11.43;;;;;17.40;100779.00;;;;10495880;28;20210;-74
2021/04/30 10:52:17;;;;;;;14.50;10.50;;;;;20.50;100773.00;;;;10509887;28;20239;-74
2021/04/30 10:57:19;;;;;;;12.45;9.90;;;;;20.90;100777.00;;;;10510812;28;20525;-74
2021/04/30 11:02:34;;;;;;;11.77;10.38;;;;;18.70;100772.00;;;;10479593;28;20654;-74
2021/04/30 11:07:38;;;;;;;14.90;10.40;;;;;17.40;100776.00;;;;10502478;28;20244;-74
2021/04/30 11:12:59;;;;;;;15.13;10.83;;;;;17.30;100765.00;;;;10493696;28;20205;-74
2021/04/30 11:18:03;;;;;;;14.37;11.37;;;;;17.80;100768.00;;;;10521637;28;20193;-74
2021/04/30 11:23:36;;;;;;;16.77;11.20;;;;;17.70;100770.00;;;;10520598;28;20197;-74
2021/04/30 11:28:41;;;;;;;14.83;10.73;;;;;18.90;100764.00;;;;10507308;28;20225;-74
2021/04/30 11:34:21;;;;;;;12.10;10.23;;;;;19.20;100763.00;;;;10481151;28;20190;-74
2021/04/30 11:39:32;;;;;;;14.30;12.25;;;;;19.00;100759.00;;;;10453346;28;20557;-74
2021/04/30 11:44:37;;;;;;;14.25;11.25;;;;;19.20;100766.00;;;;10479530;28;20214;-74
2021/04/30 11:49:39;;;;;;;11.95;10.65;;;;;20.00;100763.00;;;;10422073;28;20211;-74
2021/04/30 11:54:41;;;;;;;11.98;10.77;;;;;18.00;100772.00;;;;10403520;28;20588;-74
2021/04/30 11:59:44;;;;;;;14.43;10.53;;;;;15.70;100783.00;;;;10389361;28;20649;-74
2021/04/30 12:05:02;;;;;;;13.47;9.83;;;;;14.10;100786.00;;;;10405845;28;20222;-74
2021/04/30 12:10:24;;;;;;;14.93;10.03;;;;;13.10;100785.00;;;;10410080;28;20635;-74
2021/04/30 12:15:33;;;;;;;13.60;10.33;;;;;12.50;100797.00;;;;10436332;28;20203;-75
2021/04/30 12:20:37;;;;;;;11.83;9.37;;;;;12.20;100798.00;;;;10422471;28;20293;-74
2021/04/30 12:25:45;;;;;;;16.50;10.40;;;;;12.10;100785.00;;;;10443609;28;20284;-73
2021/04/30 12:31:10;;;;;;;14.47;10.63;;;;;12.20;100793.00;;;;10427641;28;20194;-73
2021/04/30 12:36:24;;;;;;;10.03;8.93;;;;;12.30;100797.00;;;;10458713;28;20202;-73
2021/04/30 12:41:29;;;;;;;13.43;9.67;;;;;12.40;100787.00;;;;10426214;28;20205;-73
2021/04/30 12:46:33;;;;;;;14.73;9.60;;;;;12.60;100795.00;;;;10464131;28;20213;-73
2021/04/30 12:51:37;;;;;;;12.60;9.43;;;;;12.80;100791.00;;;;10501314;28;20284;-74
2021/04/30 12:56:41;;;;;;;14.20;9.80;;;;;13.10;100789.00;;;;10503265;28;20540;-73
2021/04/30 13:01:51;;;;;;;13.50;8.90;;;;;13.80;100783.00;;;;10467404;28;20204;-73
2021/04/30 13:06:54;;;;;;;14.20;9.13;;;;;14.30;100775.00;;;;10483615;28;20564;-73
2021/04/30 13:12:01;;;;;;;13.30;8.50;;;;;14.70;100773.00;;;;10482366;28;20284;-74
2021/04/30 13:17:22;;;;;;;13.17;8.97;;;;;15.10;100773.00;;;;10444387;28;20194;-73
2021/04/30 13:22:24;;;;;;;12.67;8.47;;;;;15.40;100768.00;;;;10441801;28;20653;-74
2021/04/30 13:27:25;;;;;;;14.50;8.57;;;;;16.20;100768.00;;;;10474242;28;20268;-74
2021/04/30 13:32:46;;;;;;;12.77;8.23;;;;;16.10;100756.00;;;;10482219;28;20640;-74
2021/04/30 13:37:54;;;;;;;12.87;8.33;;;;;16.30;100752.00;;;;10482566;28;20227;-74
2021/04/30 13:42:59;;;;;;;10.80;8.07;;;;;15.90;100760.00;;;;10500054;28;20220;-74
2021/04/30 13:48:02;;;;;;;10.03;7.20;;;;;15.40;100769.00;;;;10481235;28;20209;-74
2021/04/30 13:53:05;;;;;;;13.70;7.80;;;;;15.20;100766.00;;;;10467134;28;20203;-73
2021/04/30 13:58:07;;;;;;;11.53;7.63;;;;;14.80;100766.00;;;;10484024;28;20236;-73
2021/04/30 14:03:09;;;;;;;9.53;6.73;;;;;13.90;100775.00;;;;10517830;28;20203;-74
2021/04/30 14:08:10;;;;;;;10.53;6.77;;;;;13.30;100782.00;;;;10485581;28;20585;-73
2021/04/30 14:13:12;;;;;;;12.40;7.27;;;;;12.70;100785.00;;;;10421420;28;20198;-73
2021/04/30 14:18:13;;;;;;;12.47;7.60;;;;;12.10;100779.00;;;;10460949;28;20571;-73
2021/04/30 14:23:15;;;;;;;13.90;8.23;;;;;11.90;100784.00;;;;10482371;28;20186;-73
2021/04/30 14:28:17;;;;;;;10.50;7.00;;;;;11.60;100783.00;;;;10457661;28;20209;-73
2021/04/30 14:33:18;;;;;;;11.90;8.23;;;;;11.30;100774.00;;;;10480159;28;20259;-73
2021/04/30 14:38:19;;;;;;;13.87;8.10;;;;;11.30;100772.00;;;;10463281;28;20203;-73
2021/04/30 14:43:21;;;;;;;10.73;8.70;;;;;11.60;100772.00;;;;10463975;28;20193;-73
2021/04/30 14:48:22;;;;;;;10.83;8.60;;;;;12.00;100776.00;;;;10497455;28;20205;-73
2021/04/30 14:53:23;;;;;;;13.37;8.20;;;;;12.30;100780.00;;;;10479856;28;20682;-73
2021/04/30 14:58:25;;;;;;;12.07;7.63;;;;;12.90;100776.00;;;;10449339;28;20201;-73
2021/04/30 15:03:26;;;;;;;10.40;8.03;;;;;13.60;100775.00;;;;10491257;28;20196;-74
2021/04/30 15:08:30;;;;;;;7.80;6.10;;;;;14.00;100774.00;;;;10495245;28;20228;-74
2021/04/30 15:13:32;;;;;;;11.83;7.67;;;;;14.20;100773.00;;;;10478332;28;20198;-73
2021/04/30 15:18:33;;;;;;;10.47;6.80;;;;;14.40;100773.00;;;;10454275;28;20229;-73
2021/04/30 15:23:35;;;;;;;9.50;7.17;;;;;15.20;100766.00;;;;10456068;28;20198;-73
2021/04/30 15:28:36;;;;;;;9.87;6.60;;;;;16.40;100762.00;;;;10468590;28;20205;-73
2021/04/30 15:33:38;;;;;;;9.97;6.57;;;;;15.70;100765.00;;;;10483468;28;20193;-73
2021/04/30 15:38:39;;;;;;;9.30;6.80;;;;;16.50;100771.00;;;;10468992;28;20776;-74
2021/04/30 15:43:42;;;;;;;7.50;6.67;;;;;15.90;100762.00;;;;10508040;28;20189;-73
2021/04/30 15:48:43;;;;;;;7.37;6.00;;;;;15.90;100773.00;;;;10507857;28;20217;-73
2021/04/30 15:53:45;;;;;;;8.93;6.37;;;;;16.20;100766.00;;;;10514337;28;20193;-74
2021/04/30 15:58:47;;;;;;;9.10;7.07;;;;;15.70;100776.00;;;;10462540;28;20268;-74
2021/04/30 16:03:49;;;;;;;9.13;6.43;;;;;15.30;100764.00;;;;10491979;28;20189;-74
2021/04/30 16:09:07;;;;;;;9.97;6.97;;;;;15.30;100764.00;;;;10461885;28;20768;-72
2021/04/30 16:14:22;;;;;;;13.63;7.93;;;;;15.30;100768.00;;;;10485242;28;20207;-75
2021/04/30 16:19:40;;;;;;;11.93;7.90;;;;;15.50;100761.00;;;;10483120;28;20239;-73
2021/04/30 16:24:45;;;;;;;13.57;8.83;;;;;14.90;100764.00;;;;10486561;28;20217;-73
2021/04/30 16:29:54;;;;;;;10.73;7.90;;;;;14.40;100775.00;;;;10480967;28;20216;-74
2021/04/30 16:34:55;;;;;;;11.80;8.30;;;;;14.20;100770.00;;;;10536872;28;20193;-74
2021/04/30 16:39:56;;;;;;;12.20;8.73;;;;;14.20;100779.00;;;;10495826;28;20190;-74
2021/04/30 16:44:57;;;;;;;9.87;8.37;;;;;14.20;100782.00;;;;10442502;28;20245;-74
2021/04/30 16:49:59;;;;;;;10.33;8.97;;;;;13.90;100786.00;;;;10439836;28;20206;-73
2021/04/30 16:55:01;;;;;;;13.67;8.63;;;;;13.80;100789.00;;;;10492147;28;20189;-73
2021/04/30 17:00:04;;;;;;;11.70;8.87;;;;;13.70;100770.00;;;;10475105;28;20540;-73
2021/04/30 17:05:06;;;;;;;11.97;9.10;;;;;13.50;100774.00;;;;10463236;28;20210;-73
2021/04/30 17:10:08;;;;;;;11.73;9.73;;;;;13.50;100778.00;;;;10475029;28;20209;-73
2021/04/30 17:15:10;;;;;;;10.93;9.27;;;;;13.50;100776.00;;;;10455996;28;20284;-73
2021/04/30 17:20:12;;;;;;;12.83;9.37;;;;;13.40;100769.00;;;;10469687;28;20190;-73
2021/04/30 17:25:13;;;;;;;13.23;9.87;;;;;13.00;100782.00;;;;10479265;28;20197;-73
2021/04/30 17:30:15;;;;;;;10.10;8.67;;;;;13.00;100786.00;;;;10478437;28;20205;-74
2021/04/30 17:35:16;;;;;;;10.33;8.53;;;;;13.10;100791.00;;;;10479240;28;20196;-73
2021/04/30 17:40:18;;;;;;;9.87;8.87;;;;;13.10;100791.00;;;;10461364;28;20189;-73
2021/04/30 17:45:20;;;;;;;13.17;9.03;;;;;12.80;100781.00;;;;10461677;28;20256;-73
2021/04/30 17:50:22;;;;;;;7.90;7.10;;;;;12.60;100793.00;;;;10454326;28;20202;-73
2021/04/30 17:55:24;;;;;;;10.90;9.10;;;;;12.30;100798.00;;;;10491673;28;20193;-73
2021/04/30 18:00:27;;;;;;;9.80;8.67;;;;;11.90;100802.00;;;;10514487;28;20205;-72
2021/04/30 18:05:31;;;;;;;10.70;8.53;;;;;11.60;100807.00;;;;10512991;28;20632;-73
2021/04/30 18:10:32;;;;;;;12.03;8.97;;;;;11.30;100807.00;;;;10499965;28;20208;-73
2021/04/30 18:15:34;;;;;;;10.47;9.07;;;;;10.90;100807.00;;;;10464704;28;20193;-73
2021/04/30 18:20:37;;;;;;;9.80;8.67;;;;;10.50;100803.00;;;;10460770;28;20228;-73
2021/04/30 18:25:53;;;;;;;12.73;8.90;;;;;10.20;100820.00;;;;10440402;28;20241;-73
2021/04/30 18:30:55;;;;;;;13.37;8.63;;;;;9.90;100819.00;;;;10460220;28;20190;-73
2021/04/30 18:35:57;;;;;;;10.67;8.80;;;;;9.70;100811.00;;;;10459939;28;20702;-73
2021/04/30 18:40:58;;;;;;;11.30;9.97;;;;;9.60;100826.00;;;;10486530;28;20200;-73
2021/04/30 18:46:14;;;;;;;12.20;9.37;;;;;9.50;100829.00;;;;10432676;28;20214;-73
2021/04/30 18:51:16;;;;;;;11.57;8.53;;;;;9.30;100844.00;;;;10471946;28;20644;-73
2021/04/30 18:56:17;;;;;;;15.33;9.77;;;;;9.10;100850.00;;;;10488077;28;20190;-73
2021/04/30 19:02:02;;;;;;;11.50;9.30;;;;;9.00;100858.00;;;;10451436;28;20205;-73
2021/04/30 19:07:05;;;;;;;12.23;9.20;;;;;8.80;100869.00;;;;10469572;28;20268;-73
2021/04/30 19:12:07;;;;;;;12.50;9.27;;;;;8.60;100857.00;;;;10426392;28;20733;-73
2021/04/30 19:17:13;;;;;;;14.57;10.57;;;;;8.40;100869.00;;;;10417453;28;20190;-73
2021/04/30 19:22:16;;;;;;;17.27;10.03;;;;;8.20;100874.00;;;;10442277;28;20272;-73
2021/04/30 19:27:18;;;;;;;11.73;10.07;;;;;8.10;100874.00;;;;10453366;28;20205;-73
2021/04/30 19:32:20;;;;;;;12.87;10.57;;;;;7.90;100879.00;;;;10491624;28;20229;-72
2021/04/30 19:37:21;;;;;;;14.10;11.20;;;;;7.70;100886.00;;;;10475205;28;20285;-73
2021/04/30 19:42:22;;;;;;;16.70;11.40;;;;;7.50;100888.00;;;;10508595;28;20200;-73
2021/04/30 19:47:24;;;;;;;13.93;10.80;;;;;7.30;100895.00;;;;10454124;28;20218;-72
2021/04/30 19:52:25;;;;;;;15.80;11.07;;;;;7.20;100897.00;;;;10447151;28;20217;-72
2021/04/30 19:57:35;;;;;;;14.93;11.03;;;;;7.10;100890.00;;;;10396329;28;20217;-72
2021/04/30 20:02:37;;;;;;;15.80;11.50;;;;;7.10;100901.00;;;;10416871;28;20198;-71
2021/04/30 20:07:38;;;;;;;14.73;11.53;;;;;7.10;100900.00;;;;10433443;28;20349;-71
2021/04/30 20:12:41;;;;;;;13.23;10.70;;;;;7.10;100902.00;;;;10416977;28;20260;-72
2021/04/30 20:17:43;;;;;;;14.63;11.33;;;;;7.10;100898.00;;;;10409245;28;20198;-72
2021/04/30 20:22:45;;;;;;;17.10;12.00;;;;;7.00;100901.00;;;;10440014;28;20197;-72
2021/04/30 20:27:48;;;;;;;16.90;11.63;;;;;6.90;100909.00;;;;10456803;28;20530;-72
2021/04/30 20:32:49;;;;;;;18.20;13.20;;;;;6.80;100914.00;;;;10457081;28;20194;-72
2021/04/30 20:37:51;;;;;;;19.93;12.90;;;;;6.60;100917.00;;;;10398303;28;20642;-72
2021/04/30 20:42:52;;;;;;;16.37;12.87;;;;;6.40;100916.00;;;;10416628;28;20190;-71
2021/04/30 20:47:55;;;;;;;16.23;13.00;;;;;6.30;100919.00;;;;10487706;28;20687;-72
2021/04/30 20:52:57;;;;;;;19.10;13.60;;;;;6.20;100929.00;;;;10464820;28;20706;-72
2021/04/30 20:57:59;;;;;;;20.17;13.30;;;;;6.00;100938.00;;;;10480469;28;20656;-72
2021/04/30 21:03:01;;;;;;;18.90;12.00;;;;;5.90;100938.00;;;;10463616;28;20197;-72
2021/04/30 21:08:02;;;;;;;16.23;12.77;;;;;5.80;100935.00;;;;10497625;28;20708;-72
2021/04/30 21:18:24;;;;;;;19.77;14.03;;;;;5.70;100944.00;;;;10513584;28;20181;-72
2021/04/30 21:23:25;;;;;;;19.77;15.20;;;;;5.60;100946.00;;;;10463850;28;20213;-73
2021/04/30 21:28:27;;;;;;;19.00;13.53;;;;;5.50;100957.00;;;;10462659;28;20669;-72
2021/04/30 21:33:28;;;;;;;22.03;15.33;;;;;5.40;100952.00;;;;10478983;28;20189;-72
2021/04/30 21:38:29;;;;;;;19.97;14.87;;;;;5.20;100955.00;;;;10513007;28;20190;-72
2021/04/30 21:43:31;;;;;;;19.90;15.53;;;;;5.10;100960.00;;;;10512750;28;20288;-73
2021/04/30 21:48:32;;;;;;;17.87;15.10;;;;;5.00;100962.00;;;;10437401;28;20210;-72
2021/04/30 21:53:33;;;;;;;26.63;17.37;;;;;4.90;100963.00;;;;10495092;28;20216;-72
2021/04/30 21:58:35;;;;;;;25.50;19.63;;;;;4.90;100956.00;;;;10511859;28;20641;-72
2021/04/30 22:03:37;;;;;;;27.63;19.20;;;;;4.80;100965.00;;;;10534459;28;20224;-72
2021/04/30 22:08:39;;;;;;;28.50;19.20;;;;;4.80;100973.00;;;;10518889;28;20223;-72
2021/04/30 22:13:41;;;;;;;26.87;19.40;;;;;4.70;100971.00;;;;10486336;28;20592;-72
2021/04/30 22:18:42;;;;;;;27.53;18.20;;;;;4.60;100970.00;;;;10520093;28;20250;-72
2021/04/30 22:23:43;;;;;;;27.53;18.83;;;;;4.50;100973.00;;;;10535130;28;20591;-73
2021/04/30 22:28:45;;;;;;;24.40;17.40;;;;;4.50;100979.00;;;;10518763;28;20727;-72
2021/04/30 22:33:47;;;;;;;25.63;16.73;;;;;4.40;100980.00;;;;10536064;28;20200;-72
2021/04/30 22:38:48;;;;;;;25.60;17.93;;;;;4.30;100983.00;;;;10552580;28;20184;-72
2021/04/30 22:43:50;;;;;;;21.93;17.27;;;;;4.10;100985.00;;;;10501012;28;20196;-72
2021/04/30 22:48:51;;;;;;;26.53;17.83;;;;;4.00;100985.00;;;;10502322;28;20248;-72
2021/04/30 22:53:52;;;;;;;24.40;19.00;;;;;3.90;100999.00;;;;10502126;28;20196;-72
2021/04/30 22:58:53;;;;;;;25.33;18.40;;;;;3.80;100985.00;;;;10519055;28;20590;-72
2021/04/30 23:03:55;;;;;;;26.73;20.37;;;;;3.70;101000.00;;;;10501654;28;20200;-72
2021/04/30 23:08:56;;;;;;;26.10;19.87;;;;;3.70;100991.00;;;;10518497;28;20571;-72
2021/04/30 23:13:58;;;;;;;27.17;18.67;;;;;3.60;100995.00;;;;10501497;28;20254;-72
2021/04/30 23:18:59;;;;;;;28.43;21.00;;;;;3.50;100991.00;;;;10486343;28;20192;-72
2021/04/30 23:24:03;;;;;;;27.50;20.73;;;;;3.40;100987.00;;;;10520028;28;20205;-72
2021/04/30 23:29:05;;;;;;;27.80;21.07;;;;;3.30;100990.00;;;;10519314;28;20213;-72
2021/04/30 23:34:06;;;;;;;33.20;21.70;;;;;3.30;100991.00;;;;10503134;28;20717;-72
2021/04/30 23:39:09;;;;;;;32.93;21.70;;;;;3.30;100990.00;;;;10538481;28;20191;-72
2021/04/30 23:44:11;;;;;;;33.90;22.47;;;;;3.40;100990.00;;;;10518782;28;20208;-72
2021/04/30 23:49:14;;;;;;;40.63;23.17;;;;;3.40;100982.00;;;;10503399;28;20212;-72
2021/04/30 23:54:15;;;;;;;36.87;22.70;;;;;3.40;100980.00;;;;10524061;28;20199;-72
2021/04/30 23:59:17;;;;;;;37.80;24.87;;;;;3.30;100984.00;;;;10545063;28;20258;-73
